sensor_id;sensor_type;location;lat;lon;timestamp;P1;durP1;ratioP1;P2;durP2;ratioP2
33279;SDS011;20403;43.114;12.434;2023-09-18T00:00:42;20.02;;;6.97;;
33279;SDS011;20403;43.114;12.434;2023-09-18T00:03:11;16.42;;;6.80;;
33279;SDS011;20403;43.114;12.434;2023-09-18T00:05:36;11.82;;;6.30;;
33279;SDS011;20403;43.114;12.434;2023-09-18T00:08:01;15.02;;;6.95;;
33279;SDS011;20403;43.114;12.434;2023-09-18T00:10:27;17.10;;;6.40;;
33279;SDS011;20403;43.114;12.434;2023-09-18T00:12:54;15.65;;;6.57;;
33279;SDS011;20403;43.114;12.434;2023-09-18T00:15:19;14.18;;;6.70;;
33279;SDS011;20403;43.114;12.434;2023-09-18T00:17:45;18.73;;;7.60;;
33279;SDS011;20403;43.114;12.434;2023-09-18T00:20:11;13.65;;;6.22;;
33279;SDS011;20403;43.114;12.434;2023-09-18T00:22:37;11.30;;;6.07;;
33279;SDS011;20403;43.114;12.434;2023-09-18T00:25:02;24.85;;;7.22;;
33279;SDS011;20403;43.114;12.434;2023-09-18T00:27:28;15.77;;;6.97;;
33279;SDS011;20403;43.114;12.434;2023-09-18T00:29:54;14.45;;;6.93;;
33279;SDS011;20403;43.114;12.434;2023-09-18T00:32:20;11.43;;;6.47;;
33279;SDS011;20403;43.114;12.434;2023-09-18T00:34:45;13.32;;;6.95;;
33279;SDS011;20403;43.114;12.434;2023-09-18T00:37:10;22.52;;;7.50;;
33279;SDS011;20403;43.114;12.434;2023-09-18T00:39:37;14.73;;;7.55;;
33279;SDS011;20403;43.114;12.434;2023-09-18T00:42:03;18.73;;;7.00;;
33279;SDS011;20403;43.114;12.434;2023-09-18T00:44:28;18.08;;;6.82;;
33279;SDS011;20403;43.114;12.434;2023-09-18T00:46:54;14.55;;;6.95;;
33279;SDS011;20403;43.114;12.434;2023-09-18T00:49:20;13.68;;;6.35;;
33279;SDS011;20403;43.114;12.434;2023-09-18T00:51:48;11.63;;;6.45;;
33279;SDS011;20403;43.114;12.434;2023-09-18T00:54:15;18.50;;;6.50;;
33279;SDS011;20403;43.114;12.434;2023-09-18T00:56:44;20.88;;;7.20;;
33279;SDS011;20403;43.114;12.434;2023-09-18T00:59:10;14.85;;;6.50;;
33279;SDS011;20403;43.114;12.434;2023-09-18T01:01:37;18.08;;;7.25;;
33279;SDS011;20403;43.114;12.434;2023-09-18T01:04:04;20.10;;;6.78;;
33279;SDS011;20403;43.114;12.434;2023-09-18T01:06:30;16.92;;;7.20;;
33279;SDS011;20403;43.114;12.434;2023-09-18T01:08:55;13.88;;;6.78;;
33279;SDS011;20403;43.114;12.434;2023-09-18T01:11:33;15.73;;;6.80;;
33279;SDS011;20403;43.114;12.434;2023-09-18T01:16:35;18.58;;;7.93;;
33279;SDS011;20403;43.114;12.434;2023-09-18T01:19:06;18.20;;;6.60;;
33279;SDS011;20403;43.114;12.434;2023-09-18T01:21:32;15.25;;;5.97;;
33279;SDS011;20403;43.114;12.434;2023-09-18T01:23:57;9.88;;;6.07;;
33279;SDS011;20403;43.114;12.434;2023-09-18T01:26:22;16.13;;;6.57;;
33279;SDS011;20403;43.114;12.434;2023-09-18T01:28:48;15.75;;;6.57;;
33279;SDS011;20403;43.114;12.434;2023-09-18T01:31:13;17.05;;;6.97;;
33279;SDS011;20403;43.114;12.434;2023-09-18T01:33:38;15.82;;;6.78;;
33279;SDS011;20403;43.114;12.434;2023-09-18T01:36:06;11.68;;;6.70;;
33279;SDS011;20403;43.114;12.434;2023-09-18T01:38:32;17.58;;;6.18;;
33279;SDS011;20403;43.114;12.434;2023-09-18T01:40:58;24.80;;;7.63;;
33279;SDS011;20403;43.114;12.434;2023-09-18T01:43:25;16.40;;;6.78;;
33279;SDS011;20403;43.114;12.434;2023-09-18T01:45:51;13.10;;;7.40;;
33279;SDS011;20403;43.114;12.434;2023-09-18T01:48:18;12.05;;;6.80;;
33279;SDS011;20403;43.114;12.434;2023-09-18T01:50:43;18.42;;;7.05;;
33279;SDS011;20403;43.114;12.434;2023-09-18T01:53:09;21.08;;;6.63;;
33279;SDS011;20403;43.114;12.434;2023-09-18T01:55:34;16.27;;;6.53;;
33279;SDS011;20403;43.114;12.434;2023-09-18T01:58:00;17.20;;;6.70;;
33279;SDS011;20403;43.114;12.434;2023-09-18T02:00:25;18.85;;;7.00;;
33279;SDS011;20403;43.114;12.434;2023-09-18T02:02:51;13.90;;;6.55;;
33279;SDS011;20403;43.114;12.434;2023-09-18T02:05:16;15.38;;;6.45;;
33279;SDS011;20403;43.114;12.434;2023-09-18T02:07:41;19.02;;;6.68;;
33279;SDS011;20403;43.114;12.434;2023-09-18T02:10:07;18.35;;;6.95;;
33279;SDS011;20403;43.114;12.434;2023-09-18T02:12:33;17.02;;;6.45;;
33279;SDS011;20403;43.114;12.434;2023-09-18T02:14:58;18.42;;;6.97;;
33279;SDS011;20403;43.114;12.434;2023-09-18T02:19:54;14.38;;;7.22;;
33279;SDS011;20403;43.114;12.434;2023-09-18T02:22:20;18.20;;;6.75;;
33279;SDS011;20403;43.114;12.434;2023-09-18T02:24:45;20.65;;;6.95;;
33279;SDS011;20403;43.114;12.434;2023-09-18T02:27:11;13.82;;;6.90;;
33279;SDS011;20403;43.114;12.434;2023-09-18T02:29:37;21.55;;;7.72;;
33279;SDS011;20403;43.114;12.434;2023-09-18T02:32:02;22.40;;;6.40;;
33279;SDS011;20403;43.114;12.434;2023-09-18T02:34:28;18.77;;;7.40;;
33279;SDS011;20403;43.114;12.434;2023-09-18T02:36:53;17.23;;;7.10;;
33279;SDS011;20403;43.114;12.434;2023-09-18T02:39:19;19.27;;;7.18;;
33279;SDS011;20403;43.114;12.434;2023-09-18T02:41:44;19.00;;;8.27;;
33279;SDS011;20403;43.114;12.434;2023-09-18T02:44:09;12.68;;;7.68;;
33279;SDS011;20403;43.114;12.434;2023-09-18T02:46:36;15.27;;;8.18;;
33279;SDS011;20403;43.114;12.434;2023-09-18T02:49:02;14.73;;;6.72;;
33279;SDS011;20403;43.114;12.434;2023-09-18T02:51:28;21.75;;;7.50;;
33279;SDS011;20403;43.114;12.434;2023-09-18T02:53:56;21.35;;;7.72;;
33279;SDS011;20403;43.114;12.434;2023-09-18T02:56:22;22.17;;;8.85;;
33279;SDS011;20403;43.114;12.434;2023-09-18T02:58:47;16.55;;;7.65;;
33279;SDS011;20403;43.114;12.434;2023-09-18T03:01:13;16.15;;;6.97;;
33279;SDS011;20403;43.114;12.434;2023-09-18T03:03:38;20.58;;;7.75;;
33279;SDS011;20403;43.114;12.434;2023-09-18T03:06:06;14.50;;;7.45;;
33279;SDS011;20403;43.114;12.434;2023-09-18T03:08:32;15.82;;;6.90;;
33279;SDS011;20403;43.114;12.434;2023-09-18T03:10:58;14.82;;;7.88;;
33279;SDS011;20403;43.114;12.434;2023-09-18T03:13:26;19.00;;;7.80;;
33279;SDS011;20403;43.114;12.434;2023-09-18T03:15:52;20.27;;;6.72;;
33279;SDS011;20403;43.114;12.434;2023-09-18T03:18:18;16.92;;;6.93;;
33279;SDS011;20403;43.114;12.434;2023-09-18T03:20:43;20.75;;;7.10;;
33279;SDS011;20403;43.114;12.434;2023-09-18T03:23:09;12.70;;;6.85;;
33279;SDS011;20403;43.114;12.434;2023-09-18T03:25:35;21.13;;;7.45;;
33279;SDS011;20403;43.114;12.434;2023-09-18T03:28:02;15.85;;;7.00;;
33279;SDS011;20403;43.114;12.434;2023-09-18T03:30:28;20.85;;;9.13;;
33279;SDS011;20403;43.114;12.434;2023-09-18T03:32:53;16.58;;;7.20;;
33279;SDS011;20403;43.114;12.434;2023-09-18T03:35:19;13.98;;;6.43;;
33279;SDS011;20403;43.114;12.434;2023-09-18T03:37:52;16.65;;;6.78;;
33279;SDS011;20403;43.114;12.434;2023-09-18T03:40:19;18.15;;;7.32;;
33279;SDS011;20403;43.114;12.434;2023-09-18T03:42:46;14.32;;;6.53;;
33279;SDS011;20403;43.114;12.434;2023-09-18T03:45:12;18.42;;;7.13;;
33279;SDS011;20403;43.114;12.434;2023-09-18T03:47:40;19.55;;;7.43;;
33279;SDS011;20403;43.114;12.434;2023-09-18T03:50:10;15.65;;;7.40;;
33279;SDS011;20403;43.114;12.434;2023-09-18T03:52:36;20.88;;;7.95;;
33279;SDS011;20403;43.114;12.434;2023-09-18T03:55:03;13.90;;;7.80;;
33279;SDS011;20403;43.114;12.434;2023-09-18T03:57:29;18.00;;;8.10;;
33279;SDS011;20403;43.114;12.434;2023-09-18T03:59:55;19.15;;;8.70;;
33279;SDS011;20403;43.114;12.434;2023-09-18T04:02:21;13.88;;;7.20;;
33279;SDS011;20403;43.114;12.434;2023-09-18T04:04:49;17.92;;;7.43;;
33279;SDS011;20403;43.114;12.434;2023-09-18T04:07:14;14.05;;;6.30;;
33279;SDS011;20403;43.114;12.434;2023-09-18T04:09:41;14.30;;;6.88;;
33279;SDS011;20403;43.114;12.434;2023-09-18T04:12:07;13.18;;;6.50;;
33279;SDS011;20403;43.114;12.434;2023-09-18T04:14:33;18.98;;;6.80;;
33279;SDS011;20403;43.114;12.434;2023-09-18T04:16:58;24.88;;;7.47;;
33279;SDS011;20403;43.114;12.434;2023-09-18T04:19:25;13.35;;;6.88;;
33279;SDS011;20403;43.114;12.434;2023-09-18T04:21:51;17.90;;;7.50;;
33279;SDS011;20403;43.114;12.434;2023-09-18T04:24:16;14.10;;;7.50;;
33279;SDS011;20403;43.114;12.434;2023-09-18T04:26:42;17.25;;;6.80;;
33279;SDS011;20403;43.114;12.434;2023-09-18T04:29:08;14.18;;;7.10;;
33279;SDS011;20403;43.114;12.434;2023-09-18T04:31:34;12.40;;;7.22;;
33279;SDS011;20403;43.114;12.434;2023-09-18T04:33:59;16.30;;;7.30;;
33279;SDS011;20403;43.114;12.434;2023-09-18T04:36:24;16.35;;;7.25;;
33279;SDS011;20403;43.114;12.434;2023-09-18T04:38:51;12.57;;;6.75;;
33279;SDS011;20403;43.114;12.434;2023-09-18T04:41:16;17.55;;;6.70;;
33279;SDS011;20403;43.114;12.434;2023-09-18T04:43:41;16.15;;;8.07;;
33279;SDS011;20403;43.114;12.434;2023-09-18T04:46:10;17.77;;;8.48;;
33279;SDS011;20403;43.114;12.434;2023-09-18T04:48:35;14.63;;;6.90;;
33279;SDS011;20403;43.114;12.434;2023-09-18T04:51:02;22.63;;;8.00;;
33279;SDS011;20403;43.114;12.434;2023-09-18T04:53:31;15.23;;;7.07;;
33279;SDS011;20403;43.114;12.434;2023-09-18T04:55:57;13.88;;;7.50;;
33279;SDS011;20403;43.114;12.434;2023-09-18T04:58:23;21.08;;;8.35;;
33279;SDS011;20403;43.114;12.434;2023-09-18T05:00:55;15.80;;;8.32;;
33279;SDS011;20403;43.114;12.434;2023-09-18T05:03:22;20.40;;;8.77;;
33279;SDS011;20403;43.114;12.434;2023-09-18T05:05:48;16.92;;;8.45;;
33279;SDS011;20403;43.114;12.434;2023-09-18T05:08:13;15.05;;;7.57;;
33279;SDS011;20403;43.114;12.434;2023-09-18T05:10:38;18.20;;;7.50;;
33279;SDS011;20403;43.114;12.434;2023-09-18T05:13:04;25.63;;;9.32;;
33279;SDS011;20403;43.114;12.434;2023-09-18T05:15:30;20.23;;;8.32;;
33279;SDS011;20403;43.114;12.434;2023-09-18T05:17:55;24.73;;;8.38;;
33279;SDS011;20403;43.114;12.434;2023-09-18T05:20:23;24.83;;;8.52;;
33279;SDS011;20403;43.114;12.434;2023-09-18T05:22:50;14.75;;;7.22;;
33279;SDS011;20403;43.114;12.434;2023-09-18T05:25:18;21.83;;;7.20;;
33279;SDS011;20403;43.114;12.434;2023-09-18T05:27:44;20.10;;;7.82;;
33279;SDS011;20403;43.114;12.434;2023-09-18T05:30:13;19.10;;;7.82;;
33279;SDS011;20403;43.114;12.434;2023-09-18T05:35:07;13.38;;;7.35;;
33279;SDS011;20403;43.114;12.434;2023-09-18T05:37:35;22.83;;;8.65;;
33279;SDS011;20403;43.114;12.434;2023-09-18T05:40:02;19.95;;;7.68;;
33279;SDS011;20403;43.114;12.434;2023-09-18T05:42:30;18.33;;;8.00;;
33279;SDS011;20403;43.114;12.434;2023-09-18T05:44:56;15.23;;;7.22;;
33279;SDS011;20403;43.114;12.434;2023-09-18T05:47:21;21.40;;;8.70;;
33279;SDS011;20403;43.114;12.434;2023-09-18T05:49:47;19.65;;;8.00;;
33279;SDS011;20403;43.114;12.434;2023-09-18T05:52:13;17.60;;;7.10;;
33279;SDS011;20403;43.114;12.434;2023-09-18T05:54:38;15.98;;;7.95;;
33279;SDS011;20403;43.114;12.434;2023-09-18T05:57:04;24.23;;;8.52;;
33279;SDS011;20403;43.114;12.434;2023-09-18T05:59:29;17.80;;;8.35;;
33279;SDS011;20403;43.114;12.434;2023-09-18T06:01:55;16.25;;;8.77;;
33279;SDS011;20403;43.114;12.434;2023-09-18T06:04:20;22.83;;;8.60;;
33279;SDS011;20403;43.114;12.434;2023-09-18T06:06:46;24.55;;;8.63;;
33279;SDS011;20403;43.114;12.434;2023-09-18T06:09:12;26.33;;;8.90;;
33279;SDS011;20403;43.114;12.434;2023-09-18T06:11:37;20.65;;;8.73;;
33279;SDS011;20403;43.114;12.434;2023-09-18T06:14:03;25.52;;;8.23;;
33279;SDS011;20403;43.114;12.434;2023-09-18T06:16:28;23.33;;;9.10;;
33279;SDS011;20403;43.114;12.434;2023-09-18T06:18:55;14.38;;;8.73;;
33279;SDS011;20403;43.114;12.434;2023-09-18T06:21:21;20.80;;;9.45;;
33279;SDS011;20403;43.114;12.434;2023-09-18T06:23:46;16.25;;;9.70;;
33279;SDS011;20403;43.114;12.434;2023-09-18T06:26:11;19.02;;;9.95;;
33279;SDS011;20403;43.114;12.434;2023-09-18T06:28:37;18.60;;;10.95;;
33279;SDS011;20403;43.114;12.434;2023-09-18T06:31:03;38.45;;;10.60;;
33279;SDS011;20403;43.114;12.434;2023-09-18T06:33:29;17.75;;;8.95;;
33279;SDS011;20403;43.114;12.434;2023-09-18T06:35:55;22.80;;;12.27;;
33279;SDS011;20403;43.114;12.434;2023-09-18T06:38:20;27.00;;;13.57;;
33279;SDS011;20403;43.114;12.434;2023-09-18T06:40:46;19.23;;;9.88;;
33279;SDS011;20403;43.114;12.434;2023-09-18T06:43:12;24.30;;;10.77;;
33279;SDS011;20403;43.114;12.434;2023-09-18T06:45:37;17.45;;;9.73;;
33279;SDS011;20403;43.114;12.434;2023-09-18T06:48:03;16.00;;;9.02;;
33279;SDS011;20403;43.114;12.434;2023-09-18T06:50:29;26.63;;;11.00;;
33279;SDS011;20403;43.114;12.434;2023-09-18T06:52:55;17.65;;;10.70;;
33279;SDS011;20403;43.114;12.434;2023-09-18T06:55:21;16.83;;;8.18;;
33279;SDS011;20403;43.114;12.434;2023-09-18T06:57:47;15.73;;;8.88;;
33279;SDS011;20403;43.114;12.434;2023-09-18T07:00:14;23.10;;;8.55;;
33279;SDS011;20403;43.114;12.434;2023-09-18T07:02:45;20.98;;;8.77;;
33279;SDS011;20403;43.114;12.434;2023-09-18T07:05:11;19.80;;;9.80;;
33279;SDS011;20403;43.114;12.434;2023-09-18T07:07:36;22.00;;;9.75;;
33279;SDS011;20403;43.114;12.434;2023-09-18T07:10:01;17.67;;;9.48;;
33279;SDS011;20403;43.114;12.434;2023-09-18T07:12:27;16.65;;;8.85;;
33279;SDS011;20403;43.114;12.434;2023-09-18T07:14:53;20.80;;;9.00;;
33279;SDS011;20403;43.114;12.434;2023-09-18T07:17:18;17.80;;;8.13;;
33279;SDS011;20403;43.114;12.434;2023-09-18T07:19:44;23.58;;;8.68;;
33279;SDS011;20403;43.114;12.434;2023-09-18T07:22:09;17.48;;;8.38;;
33279;SDS011;20403;43.114;12.434;2023-09-18T07:24:35;16.65;;;7.97;;
33279;SDS011;20403;43.114;12.434;2023-09-18T07:27:00;14.63;;;8.20;;
33279;SDS011;20403;43.114;12.434;2023-09-18T07:29:25;15.98;;;7.78;;
33279;SDS011;20403;43.114;12.434;2023-09-18T07:31:51;16.77;;;7.88;;
33279;SDS011;20403;43.114;12.434;2023-09-18T07:34:17;14.45;;;7.60;;
33279;SDS011;20403;43.114;12.434;2023-09-18T07:36:43;13.18;;;7.38;;
33279;SDS011;20403;43.114;12.434;2023-09-18T07:39:10;14.68;;;7.45;;
33279;SDS011;20403;43.114;12.434;2023-09-18T07:41:37;18.30;;;7.68;;
33279;SDS011;20403;43.114;12.434;2023-09-18T07:44:02;12.52;;;7.57;;
33279;SDS011;20403;43.114;12.434;2023-09-18T07:46:28;13.60;;;7.20;;
33279;SDS011;20403;43.114;12.434;2023-09-18T07:48:54;22.05;;;7.03;;
33279;SDS011;20403;43.114;12.434;2023-09-18T07:51:20;20.08;;;7.47;;
33279;SDS011;20403;43.114;12.434;2023-09-18T07:53:45;14.25;;;7.50;;
33279;SDS011;20403;43.114;12.434;2023-09-18T07:56:11;15.85;;;7.53;;
33279;SDS011;20403;43.114;12.434;2023-09-18T07:58:37;30.75;;;8.52;;
33279;SDS011;20403;43.114;12.434;2023-09-18T08:01:03;21.08;;;7.90;;
33279;SDS011;20403;43.114;12.434;2023-09-18T08:03:30;16.52;;;7.25;;
33279;SDS011;20403;43.114;12.434;2023-09-18T08:05:56;18.63;;;7.57;;
33279;SDS011;20403;43.114;12.434;2023-09-18T08:08:22;18.85;;;8.32;;
33279;SDS011;20403;43.114;12.434;2023-09-18T08:10:51;17.67;;;7.25;;
33279;SDS011;20403;43.114;12.434;2023-09-18T08:13:18;21.90;;;7.75;;
33279;SDS011;20403;43.114;12.434;2023-09-18T08:15:45;21.42;;;6.93;;
33279;SDS011;20403;43.114;12.434;2023-09-18T08:18:11;24.67;;;7.05;;
33279;SDS011;20403;43.114;12.434;2023-09-18T08:20:44;17.50;;;6.43;;
33279;SDS011;20403;43.114;12.434;2023-09-18T08:23:10;21.42;;;6.85;;
33279;SDS011;20403;43.114;12.434;2023-09-18T08:25:36;25.42;;;7.57;;
33279;SDS011;20403;43.114;12.434;2023-09-18T08:28:02;26.42;;;7.57;;
33279;SDS011;20403;43.114;12.434;2023-09-18T08:30:29;26.85;;;7.85;;
33279;SDS011;20403;43.114;12.434;2023-09-18T08:32:55;26.15;;;7.95;;
33279;SDS011;20403;43.114;12.434;2023-09-18T08:35:20;24.50;;;7.03;;
33279;SDS011;20403;43.114;12.434;2023-09-18T08:37:47;24.35;;;6.72;;
33279;SDS011;20403;43.114;12.434;2023-09-18T08:40:12;34.47;;;8.88;;
33279;SDS011;20403;43.114;12.434;2023-09-18T08:42:43;30.15;;;7.53;;
33279;SDS011;20403;43.114;12.434;2023-09-18T08:45:12;45.00;;;8.57;;
33279;SDS011;20403;43.114;12.434;2023-09-18T08:47:50;42.88;;;9.10;;
33279;SDS011;20403;43.114;12.434;2023-09-18T08:50:17;43.92;;;8.27;;
33279;SDS011;20403;43.114;12.434;2023-09-18T08:52:43;35.97;;;8.48;;
33279;SDS011;20403;43.114;12.434;2023-09-18T08:55:10;35.33;;;9.73;;
33279;SDS011;20403;43.114;12.434;2023-09-18T08:57:36;37.35;;;8.80;;
33279;SDS011;20403;43.114;12.434;2023-09-18T09:00:03;48.75;;;9.57;;
33279;SDS011;20403;43.114;12.434;2023-09-18T09:02:33;28.50;;;7.57;;
33279;SDS011;20403;43.114;12.434;2023-09-18T09:04:59;33.08;;;7.88;;
33279;SDS011;20403;43.114;12.434;2023-09-18T09:07:25;30.95;;;7.50;;
33279;SDS011;20403;43.114;12.434;2023-09-18T09:09:51;32.72;;;7.50;;
33279;SDS011;20403;43.114;12.434;2023-09-18T09:12:38;36.15;;;7.93;;
33279;SDS011;20403;43.114;12.434;2023-09-18T09:15:13;30.27;;;7.25;;
33279;SDS011;20403;43.114;12.434;2023-09-18T09:17:39;25.02;;;5.90;;
33279;SDS011;20403;43.114;12.434;2023-09-18T09:20:09;18.48;;;5.88;;
33279;SDS011;20403;43.114;12.434;2023-09-18T09:22:39;22.85;;;5.68;;
33279;SDS011;20403;43.114;12.434;2023-09-18T09:27:46;16.35;;;5.68;;
33279;SDS011;20403;43.114;12.434;2023-09-18T09:30:18;27.77;;;6.25;;
33279;SDS011;20403;43.114;12.434;2023-09-18T09:32:47;24.05;;;6.97;;
33279;SDS011;20403;43.114;12.434;2023-09-18T09:35:18;16.55;;;6.05;;
33279;SDS011;20403;43.114;12.434;2023-09-18T09:37:58;26.65;;;6.75;;
33279;SDS011;20403;43.114;12.434;2023-09-18T09:40:25;13.52;;;6.25;;
33279;SDS011;20403;43.114;12.434;2023-09-18T09:42:53;25.67;;;5.72;;
33279;SDS011;20403;43.114;12.434;2023-09-18T09:45:25;14.73;;;5.63;;
33279;SDS011;20403;43.114;12.434;2023-09-18T09:47:53;14.77;;;5.28;;
33279;SDS011;20403;43.114;12.434;2023-09-18T09:50:19;16.00;;;5.95;;
33279;SDS011;20403;43.114;12.434;2023-09-18T09:52:51;26.60;;;6.03;;
33279;SDS011;20403;43.114;12.434;2023-09-18T09:58:00;20.45;;;6.50;;
33279;SDS011;20403;43.114;12.434;2023-09-18T10:00:32;31.23;;;5.65;;
33279;SDS011;20403;43.114;12.434;2023-09-18T10:03:08;14.68;;;5.47;;
33279;SDS011;20403;43.114;12.434;2023-09-18T10:05:36;14.57;;;4.65;;
33279;SDS011;20403;43.114;12.434;2023-09-18T10:08:21;21.15;;;6.07;;
33279;SDS011;20403;43.114;12.434;2023-09-18T10:10:50;15.63;;;4.90;;
33279;SDS011;20403;43.114;12.434;2023-09-18T10:16:01;9.57;;;4.63;;
33279;SDS011;20403;43.114;12.434;2023-09-18T10:24:28;18.70;;;5.38;;
33279;SDS011;20403;43.114;12.434;2023-09-18T10:27:00;20.83;;;5.00;;
33279;SDS011;20403;43.114;12.434;2023-09-18T10:29:29;20.90;;;4.40;;
33279;SDS011;20403;43.114;12.434;2023-09-18T10:31:57;20.02;;;5.15;;
33279;SDS011;20403;43.114;12.434;2023-09-18T10:34:24;12.00;;;4.72;;
33279;SDS011;20403;43.114;12.434;2023-09-18T10:36:51;16.98;;;4.55;;
33279;SDS011;20403;43.114;12.434;2023-09-18T10:39:18;14.93;;;4.53;;
33279;SDS011;20403;43.114;12.434;2023-09-18T10:41:49;12.65;;;4.25;;
33279;SDS011;20403;43.114;12.434;2023-09-18T10:44:17;15.20;;;4.60;;
33279;SDS011;20403;43.114;12.434;2023-09-18T10:46:49;16.92;;;4.00;;
33279;SDS011;20403;43.114;12.434;2023-09-18T10:49:20;13.52;;;4.15;;
33279;SDS011;20403;43.114;12.434;2023-09-18T10:51:47;19.77;;;4.13;;
33279;SDS011;20403;43.114;12.434;2023-09-18T10:54:18;12.15;;;3.95;;
33279;SDS011;20403;43.114;12.434;2023-09-18T10:56:46;11.13;;;3.65;;
33279;SDS011;20403;43.114;12.434;2023-09-18T10:59:13;11.60;;;4.32;;
33279;SDS011;20403;43.114;12.434;2023-09-18T11:01:39;11.00;;;4.05;;
33279;SDS011;20403;43.114;12.434;2023-09-18T11:04:05;14.43;;;4.00;;
33279;SDS011;20403;43.114;12.434;2023-09-18T11:09:19;11.13;;;4.07;;
33279;SDS011;20403;43.114;12.434;2023-09-18T11:11:46;9.05;;;3.63;;
33279;SDS011;20403;43.114;12.434;2023-09-18T11:16:42;7.68;;;3.53;;
33279;SDS011;20403;43.114;12.434;2023-09-18T11:19:11;12.25;;;3.40;;
33279;SDS011;20403;43.114;12.434;2023-09-18T11:21:39;12.18;;;2.88;;
33279;SDS011;20403;43.114;12.434;2023-09-18T11:24:17;8.77;;;2.97;;
33279;SDS011;20403;43.114;12.434;2023-09-18T11:26:45;7.10;;;3.10;;
33279;SDS011;20403;43.114;12.434;2023-09-18T11:29:16;10.50;;;3.35;;
33279;SDS011;20403;43.114;12.434;2023-09-18T11:31:50;10.60;;;3.33;;
33279;SDS011;20403;43.114;12.434;2023-09-18T11:36:51;9.38;;;3.50;;
33279;SDS011;20403;43.114;12.434;2023-09-18T11:42:17;10.45;;;3.33;;
33279;SDS011;20403;43.114;12.434;2023-09-18T11:44:44;11.07;;;3.47;;
33279;SDS011;20403;43.114;12.434;2023-09-18T11:47:14;7.15;;;2.85;;
33279;SDS011;20403;43.114;12.434;2023-09-18T11:49:47;9.43;;;3.28;;
33279;SDS011;20403;43.114;12.434;2023-09-18T11:52:19;7.63;;;2.75;;
33279;SDS011;20403;43.114;12.434;2023-09-18T11:54:56;9.48;;;3.03;;
33279;SDS011;20403;43.114;12.434;2023-09-18T11:57:23;11.73;;;3.22;;
33279;SDS011;20403;43.114;12.434;2023-09-18T11:59:49;10.55;;;3.15;;
33279;SDS011;20403;43.114;12.434;2023-09-18T12:02:24;13.52;;;3.30;;
33279;SDS011;20403;43.114;12.434;2023-09-18T12:04:52;7.55;;;2.83;;
33279;SDS011;20403;43.114;12.434;2023-09-18T12:07:21;10.38;;;3.13;;
33279;SDS011;20403;43.114;12.434;2023-09-18T12:09:47;10.75;;;3.05;;
33279;SDS011;20403;43.114;12.434;2023-09-18T12:12:14;8.82;;;3.38;;
33279;SDS011;20403;43.114;12.434;2023-09-18T12:14:41;20.20;;;3.67;;
33279;SDS011;20403;43.114;12.434;2023-09-18T12:17:13;12.20;;;3.58;;
33279;SDS011;20403;43.114;12.434;2023-09-18T12:19:49;12.13;;;3.55;;
33279;SDS011;20403;43.114;12.434;2023-09-18T12:22:25;10.23;;;3.63;;
33279;SDS011;20403;43.114;12.434;2023-09-18T12:24:52;17.20;;;3.60;;
33279;SDS011;20403;43.114;12.434;2023-09-18T12:27:18;14.90;;;3.80;;
33279;SDS011;20403;43.114;12.434;2023-09-18T12:29:43;9.10;;;3.03;;
33279;SDS011;20403;43.114;12.434;2023-09-18T12:32:09;11.95;;;3.63;;
33279;SDS011;20403;43.114;12.434;2023-09-18T12:34:40;9.38;;;3.67;;
33279;SDS011;20403;43.114;12.434;2023-09-18T12:37:06;12.45;;;3.83;;
33279;SDS011;20403;43.114;12.434;2023-09-18T12:39:36;12.25;;;3.30;;
33279;SDS011;20403;43.114;12.434;2023-09-18T12:42:01;14.18;;;3.72;;
33279;SDS011;20403;43.114;12.434;2023-09-18T12:44:27;12.65;;;3.70;;
33279;SDS011;20403;43.114;12.434;2023-09-18T12:46:53;15.38;;;3.60;;
33279;SDS011;20403;43.114;12.434;2023-09-18T12:51:53;14.30;;;3.40;;
33279;SDS011;20403;43.114;12.434;2023-09-18T12:54:38;7.45;;;3.00;;
33279;SDS011;20403;43.114;12.434;2023-09-18T12:57:05;13.82;;;3.28;;
33279;SDS011;20403;43.114;12.434;2023-09-18T12:59:32;10.48;;;3.42;;
33279;SDS011;20403;43.114;12.434;2023-09-18T13:01:58;13.02;;;4.00;;
33279;SDS011;20403;43.114;12.434;2023-09-18T13:04:24;12.98;;;4.07;;
33279;SDS011;20403;43.114;12.434;2023-09-18T13:07:06;23.20;;;4.20;;
33279;SDS011;20403;43.114;12.434;2023-09-18T13:09:33;17.02;;;4.10;;
33279;SDS011;20403;43.114;12.434;2023-09-18T13:12:00;18.67;;;3.78;;
33279;SDS011;20403;43.114;12.434;2023-09-18T13:14:25;9.50;;;3.17;;
33279;SDS011;20403;43.114;12.434;2023-09-18T13:16:52;13.48;;;3.65;;
33279;SDS011;20403;43.114;12.434;2023-09-18T13:19:17;12.40;;;3.72;;
33279;SDS011;20403;43.114;12.434;2023-09-18T13:21:50;11.07;;;4.03;;
33279;SDS011;20403;43.114;12.434;2023-09-18T13:24:28;10.07;;;3.65;;
33279;SDS011;20403;43.114;12.434;2023-09-18T13:26:55;11.18;;;3.45;;
33279;SDS011;20403;43.114;12.434;2023-09-18T13:29:22;10.80;;;3.53;;
33279;SDS011;20403;43.114;12.434;2023-09-18T13:31:49;13.88;;;3.95;;
33279;SDS011;20403;43.114;12.434;2023-09-18T13:34:15;23.65;;;4.78;;
33279;SDS011;20403;43.114;12.434;2023-09-18T13:36:44;11.70;;;4.18;;
33279;SDS011;20403;43.114;12.434;2023-09-18T13:39:11;9.77;;;3.97;;
33279;SDS011;20403;43.114;12.434;2023-09-18T13:41:37;12.65;;;3.65;;
33279;SDS011;20403;43.114;12.434;2023-09-18T13:44:03;14.20;;;3.50;;
33279;SDS011;20403;43.114;12.434;2023-09-18T13:46:28;15.20;;;3.50;;
33279;SDS011;20403;43.114;12.434;2023-09-18T13:48:54;10.98;;;3.85;;
33279;SDS011;20403;43.114;12.434;2023-09-18T13:51:19;14.48;;;3.85;;
33279;SDS011;20403;43.114;12.434;2023-09-18T13:53:45;15.13;;;4.72;;
33279;SDS011;20403;43.114;12.434;2023-09-18T13:56:12;17.48;;;4.00;;
33279;SDS011;20403;43.114;12.434;2023-09-18T13:58:37;11.25;;;3.40;;
33279;SDS011;20403;43.114;12.434;2023-09-18T14:01:06;13.40;;;3.42;;
33279;SDS011;20403;43.114;12.434;2023-09-18T14:03:32;15.68;;;3.92;;
33279;SDS011;20403;43.114;12.434;2023-09-18T14:05:58;8.45;;;3.35;;
33279;SDS011;20403;43.114;12.434;2023-09-18T14:08:23;8.02;;;3.30;;
33279;SDS011;20403;43.114;12.434;2023-09-18T14:10:49;13.95;;;3.42;;
33279;SDS011;20403;43.114;12.434;2023-09-18T14:13:14;19.70;;;3.20;;
33279;SDS011;20403;43.114;12.434;2023-09-18T14:15:39;14.10;;;3.45;;
33279;SDS011;20403;43.114;12.434;2023-09-18T14:18:05;8.57;;;3.15;;
33279;SDS011;20403;43.114;12.434;2023-09-18T14:20:31;7.75;;;3.28;;
33279;SDS011;20403;43.114;12.434;2023-09-18T14:22:56;16.67;;;3.70;;
33279;SDS011;20403;43.114;12.434;2023-09-18T14:25:21;22.58;;;3.53;;
33279;SDS011;20403;43.114;12.434;2023-09-18T14:27:47;9.25;;;3.63;;
33279;SDS011;20403;43.114;12.434;2023-09-18T14:30:13;12.65;;;3.25;;
33279;SDS011;20403;43.114;12.434;2023-09-18T14:32:39;13.00;;;3.72;;
33279;SDS011;20403;43.114;12.434;2023-09-18T14:35:05;7.75;;;3.22;;
33279;SDS011;20403;43.114;12.434;2023-09-18T14:37:33;15.38;;;3.60;;
33279;SDS011;20403;43.114;12.434;2023-09-18T14:39:59;15.20;;;3.13;;
33279;SDS011;20403;43.114;12.434;2023-09-18T14:42:25;12.13;;;3.38;;
33279;SDS011;20403;43.114;12.434;2023-09-18T14:44:50;12.73;;;3.58;;
33279;SDS011;20403;43.114;12.434;2023-09-18T14:47:15;16.00;;;3.45;;
33279;SDS011;20403;43.114;12.434;2023-09-18T14:49:41;18.85;;;3.97;;
33279;SDS011;20403;43.114;12.434;2023-09-18T14:52:11;14.00;;;4.17;;
33279;SDS011;20403;43.114;12.434;2023-09-18T14:54:37;16.25;;;3.30;;